sensor_id;sensor_type;location;lat;lon;timestamp;P1;durP1;ratioP1;P2;durP2;ratioP2
18532;SDS011;9396;51.510;11.934;2023-10-31T00:02:09;9.07;;;5.67;;
18532;SDS011;9396;51.510;11.934;2023-10-31T00:04:36;9.43;;;5.90;;
18532;SDS011;9396;51.510;11.934;2023-10-31T00:07:03;12.53;;;6.07;;
18532;SDS011;9396;51.510;11.934;2023-10-31T00:09:31;12.30;;;5.97;;
18532;SDS011;9396;51.510;11.934;2023-10-31T00:11:58;10.33;;;6.20;;
18532;SDS011;9396;51.510;11.934;2023-10-31T00:14:24;7.57;;;5.97;;
18532;SDS011;9396;51.510;11.934;2023-10-31T00:16:51;9.40;;;6.57;;
18532;SDS011;9396;51.510;11.934;2023-10-31T00:19:18;12.27;;;5.77;;
18532;SDS011;9396;51.510;11.934;2023-10-31T00:21:45;11.27;;;5.47;;
18532;SDS011;9396;51.510;11.934;2023-10-31T00:24:11;6.93;;;6.00;;
18532;SDS011;9396;51.510;11.934;2023-10-31T00:26:39;8.50;;;5.20;;
18532;SDS011;9396;51.510;11.934;2023-10-31T00:29:06;7.50;;;5.77;;
18532;SDS011;9396;51.510;11.934;2023-10-31T00:31:33;7.83;;;5.30;;
18532;SDS011;9396;51.510;11.934;2023-10-31T00:34:00;8.90;;;6.00;;
18532;SDS011;9396;51.510;11.934;2023-10-31T00:36:27;11.23;;;6.00;;
18532;SDS011;9396;51.510;11.934;2023-10-31T00:38:54;7.70;;;5.80;;
18532;SDS011;9396;51.510;11.934;2023-10-31T00:41:20;11.70;;;5.90;;
18532;SDS011;9396;51.510;11.934;2023-10-31T00:43:48;9.53;;;5.67;;
18532;SDS011;9396;51.510;11.934;2023-10-31T00:46:15;8.20;;;6.03;;
18532;SDS011;9396;51.510;11.934;2023-10-31T00:48:42;9.57;;;6.30;;
18532;SDS011;9396;51.510;11.934;2023-10-31T00:51:08;10.40;;;6.40;;
18532;SDS011;9396;51.510;11.934;2023-10-31T00:53:35;11.13;;;6.77;;
18532;SDS011;9396;51.510;11.934;2023-10-31T00:56:02;9.13;;;6.50;;
18532;SDS011;9396;51.510;11.934;2023-10-31T00:58:29;9.60;;;5.83;;
18532;SDS011;9396;51.510;11.934;2023-10-31T01:00:57;11.63;;;5.77;;
18532;SDS011;9396;51.510;11.934;2023-10-31T01:03:24;8.13;;;7.13;;
18532;SDS011;9396;51.510;11.934;2023-10-31T01:05:51;7.83;;;6.37;;
18532;SDS011;9396;51.510;11.934;2023-10-31T01:08:18;14.00;;;7.63;;
18532;SDS011;9396;51.510;11.934;2023-10-31T01:10:45;12.27;;;7.47;;
18532;SDS011;9396;51.510;11.934;2023-10-31T01:13:12;13.83;;;7.27;;
18532;SDS011;9396;51.510;11.934;2023-10-31T01:15:38;10.40;;;7.73;;
18532;SDS011;9396;51.510;11.934;2023-10-31T01:18:07;11.27;;;7.27;;
18532;SDS011;9396;51.510;11.934;2023-10-31T01:20:33;14.97;;;7.90;;
18532;SDS011;9396;51.510;11.934;2023-10-31T01:23:00;11.03;;;8.13;;
18532;SDS011;9396;51.510;11.934;2023-10-31T01:25:27;12.60;;;8.50;;
18532;SDS011;9396;51.510;11.934;2023-10-31T01:27:54;12.73;;;8.63;;
18532;SDS011;9396;51.510;11.934;2023-10-31T01:30:20;16.30;;;9.60;;
18532;SDS011;9396;51.510;11.934;2023-10-31T01:32:47;16.50;;;10.30;;
18532;SDS011;9396;51.510;11.934;2023-10-31T01:35:15;19.17;;;11.97;;
18532;SDS011;9396;51.510;11.934;2023-10-31T01:37:42;21.00;;;11.90;;
18532;SDS011;9396;51.510;11.934;2023-10-31T01:40:11;20.33;;;11.70;;
18532;SDS011;9396;51.510;11.934;2023-10-31T01:42:38;22.47;;;12.03;;
18532;SDS011;9396;51.510;11.934;2023-10-31T01:45:05;19.43;;;11.77;;
18532;SDS011;9396;51.510;11.934;2023-10-31T01:47:33;21.73;;;12.03;;
18532;SDS011;9396;51.510;11.934;2023-10-31T01:49:59;18.87;;;11.77;;
18532;SDS011;9396;51.510;11.934;2023-10-31T01:52:28;19.63;;;11.87;;
18532;SDS011;9396;51.510;11.934;2023-10-31T01:54:57;16.83;;;11.07;;
18532;SDS011;9396;51.510;11.934;2023-10-31T01:57:24;15.07;;;10.60;;
18532;SDS011;9396;51.510;11.934;2023-10-31T01:59:51;12.93;;;10.43;;
18532;SDS011;9396;51.510;11.934;2023-10-31T02:02:18;14.73;;;9.40;;
18532;SDS011;9396;51.510;11.934;2023-10-31T02:04:48;14.13;;;9.67;;
18532;SDS011;9396;51.510;11.934;2023-10-31T02:07:15;12.63;;;9.50;;
18532;SDS011;9396;51.510;11.934;2023-10-31T02:09:43;18.43;;;9.63;;
18532;SDS011;9396;51.510;11.934;2023-10-31T02:12:10;12.00;;;8.57;;
18532;SDS011;9396;51.510;11.934;2023-10-31T02:14:37;12.03;;;8.70;;
18532;SDS011;9396;51.510;11.934;2023-10-31T02:17:03;11.77;;;9.20;;
18532;SDS011;9396;51.510;11.934;2023-10-31T02:19:30;14.93;;;9.37;;
18532;SDS011;9396;51.510;11.934;2023-10-31T02:21:58;13.77;;;9.47;;
18532;SDS011;9396;51.510;11.934;2023-10-31T02:24:24;12.60;;;9.73;;
18532;SDS011;9396;51.510;11.934;2023-10-31T02:26:51;15.70;;;9.57;;
18532;SDS011;9396;51.510;11.934;2023-10-31T02:29:18;11.67;;;9.63;;
18532;SDS011;9396;51.510;11.934;2023-10-31T02:31:44;12.33;;;9.73;;
18532;SDS011;9396;51.510;11.934;2023-10-31T02:34:11;12.83;;;9.37;;
18532;SDS011;9396;51.510;11.934;2023-10-31T02:36:38;12.50;;;10.03;;
18532;SDS011;9396;51.510;11.934;2023-10-31T02:39:06;12.90;;;9.47;;
18532;SDS011;9396;51.510;11.934;2023-10-31T02:41:32;20.03;;;11.20;;
18532;SDS011;9396;51.510;11.934;2023-10-31T02:43:59;12.23;;;9.77;;
18532;SDS011;9396;51.510;11.934;2023-10-31T02:46:26;13.50;;;10.30;;
18532;SDS011;9396;51.510;11.934;2023-10-31T02:48:52;11.33;;;9.07;;
18532;SDS011;9396;51.510;11.934;2023-10-31T02:51:19;17.83;;;9.50;;
18532;SDS011;9396;51.510;11.934;2023-10-31T02:53:45;11.30;;;9.53;;
18532;SDS011;9396;51.510;11.934;2023-10-31T02:56:13;14.50;;;9.93;;
18532;SDS011;9396;51.510;11.934;2023-10-31T02:58:40;17.07;;;10.50;;
18532;SDS011;9396;51.510;11.934;2023-10-31T03:01:07;15.40;;;9.70;;
18532;SDS011;9396;51.510;11.934;2023-10-31T03:03:33;12.67;;;10.10;;
18532;SDS011;9396;51.510;11.934;2023-10-31T03:06:00;14.57;;;10.87;;
18532;SDS011;9396;51.510;11.934;2023-10-31T03:08:27;15.70;;;11.07;;
18532;SDS011;9396;51.510;11.934;2023-10-31T03:10:53;12.90;;;9.90;;
18532;SDS011;9396;51.510;11.934;2023-10-31T03:13:21;14.10;;;10.37;;
18532;SDS011;9396;51.510;11.934;2023-10-31T03:15:48;11.63;;;9.43;;
18532;SDS011;9396;51.510;11.934;2023-10-31T03:18:15;12.60;;;10.50;;
18532;SDS011;9396;51.510;11.934;2023-10-31T03:20:43;11.27;;;9.43;;
18532;SDS011;9396;51.510;11.934;2023-10-31T03:23:10;11.93;;;9.90;;
18532;SDS011;9396;51.510;11.934;2023-10-31T03:25:37;12.97;;;10.60;;
18532;SDS011;9396;51.510;11.934;2023-10-31T03:28:03;12.30;;;9.73;;
18532;SDS011;9396;51.510;11.934;2023-10-31T03:30:31;11.87;;;9.60;;
18532;SDS011;9396;51.510;11.934;2023-10-31T03:32:58;11.13;;;9.30;;
18532;SDS011;9396;51.510;11.934;2023-10-31T03:35:25;11.10;;;8.67;;
18532;SDS011;9396;51.510;11.934;2023-10-31T03:37:51;12.37;;;8.80;;
18532;SDS011;9396;51.510;11.934;2023-10-31T03:40:18;9.93;;;8.23;;
18532;SDS011;9396;51.510;11.934;2023-10-31T03:42:44;10.80;;;8.07;;
18532;SDS011;9396;51.510;11.934;2023-10-31T03:45:11;9.17;;;7.60;;
18532;SDS011;9396;51.510;11.934;2023-10-31T03:47:39;9.97;;;8.07;;
18532;SDS011;9396;51.510;11.934;2023-10-31T03:50:07;8.67;;;6.93;;
18532;SDS011;9396;51.510;11.934;2023-10-31T03:52:35;7.43;;;6.70;;
18532;SDS011;9396;51.510;11.934;2023-10-31T03:55:01;8.33;;;6.40;;
18532;SDS011;9396;51.510;11.934;2023-10-31T03:57:28;6.30;;;5.63;;
18532;SDS011;9396;51.510;11.934;2023-10-31T03:59:55;6.47;;;4.83;;
18532;SDS011;9396;51.510;11.934;2023-10-31T04:02:21;6.67;;;4.17;;
18532;SDS011;9396;51.510;11.934;2023-10-31T04:04:49;4.80;;;3.60;;
18532;SDS011;9396;51.510;11.934;2023-10-31T04:07:16;6.30;;;3.23;;
18532;SDS011;9396;51.510;11.934;2023-10-31T04:09:43;3.30;;;3.00;;
18532;SDS011;9396;51.510;11.934;2023-10-31T04:12:09;4.87;;;3.20;;
18532;SDS011;9396;51.510;11.934;2023-10-31T04:14:37;4.87;;;2.97;;
18532;SDS011;9396;51.510;11.934;2023-10-31T04:17:04;4.47;;;2.73;;
18532;SDS011;9396;51.510;11.934;2023-10-31T04:19:31;4.20;;;2.80;;
18532;SDS011;9396;51.510;11.934;2023-10-31T04:21:59;8.03;;;2.60;;
18532;SDS011;9396;51.510;11.934;2023-10-31T04:24:25;2.93;;;2.63;;
18532;SDS011;9396;51.510;11.934;2023-10-31T04:26:52;2.43;;;2.20;;
18532;SDS011;9396;51.510;11.934;2023-10-31T04:29:19;6.67;;;2.60;;
18532;SDS011;9396;51.510;11.934;2023-10-31T04:31:45;7.73;;;2.17;;
18532;SDS011;9396;51.510;11.934;2023-10-31T04:34:12;6.57;;;2.27;;
18532;SDS011;9396;51.510;11.934;2023-10-31T04:36:39;3.40;;;2.00;;
18532;SDS011;9396;51.510;11.934;2023-10-31T04:39:07;4.10;;;1.97;;
18532;SDS011;9396;51.510;11.934;2023-10-31T04:41:34;3.43;;;2.10;;
18532;SDS011;9396;51.510;11.934;2023-10-31T04:44:01;4.13;;;2.77;;
18532;SDS011;9396;51.510;11.934;2023-10-31T04:46:28;2.20;;;2.00;;
18532;SDS011;9396;51.510;11.934;2023-10-31T04:48:54;4.13;;;2.03;;
18532;SDS011;9396;51.510;11.934;2023-10-31T04:51:21;5.30;;;2.07;;
18532;SDS011;9396;51.510;11.934;2023-10-31T04:53:47;2.77;;;2.20;;
18532;SDS011;9396;51.510;11.934;2023-10-31T04:56:15;2.60;;;1.90;;
18532;SDS011;9396;51.510;11.934;2023-10-31T04:58:43;3.97;;;2.33;;
18532;SDS011;9396;51.510;11.934;2023-10-31T05:01:10;2.73;;;2.30;;
18532;SDS011;9396;51.510;11.934;2023-10-31T05:03:38;3.67;;;2.23;;
18532;SDS011;9396;51.510;11.934;2023-10-31T05:06:05;3.30;;;2.20;;
18532;SDS011;9396;51.510;11.934;2023-10-31T05:08:32;2.27;;;2.03;;
18532;SDS011;9396;51.510;11.934;2023-10-31T05:10:59;4.50;;;2.00;;
18532;SDS011;9396;51.510;11.934;2023-10-31T05:13:27;2.80;;;1.73;;
18532;SDS011;9396;51.510;11.934;2023-10-31T05:15:54;2.27;;;1.87;;
18532;SDS011;9396;51.510;11.934;2023-10-31T05:18:20;3.90;;;1.70;;
18532;SDS011;9396;51.510;11.934;2023-10-31T05:20:47;2.00;;;1.50;;
18532;SDS011;9396;51.510;11.934;2023-10-31T05:23:14;5.93;;;1.60;;
18532;SDS011;9396;51.510;11.934;2023-10-31T05:25:40;1.53;;;1.40;;
18532;SDS011;9396;51.510;11.934;2023-10-31T05:28:07;2.10;;;1.40;;
18532;SDS011;9396;51.510;11.934;2023-10-31T05:30:35;3.57;;;1.27;;
18532;SDS011;9396;51.510;11.934;2023-10-31T05:33:02;3.17;;;1.40;;
18532;SDS011;9396;51.510;11.934;2023-10-31T05:35:29;1.53;;;1.23;;
18532;SDS011;9396;51.510;11.934;2023-10-31T05:37:55;1.30;;;1.20;;
18532;SDS011;9396;51.510;11.934;2023-10-31T05:40:22;1.83;;;1.20;;
18532;SDS011;9396;51.510;11.934;2023-10-31T05:42:50;1.40;;;1.30;;
18532;SDS011;9396;51.510;11.934;2023-10-31T05:45:17;3.93;;;1.10;;
18532;SDS011;9396;51.510;11.934;2023-10-31T05:47:45;2.37;;;1.27;;
18532;SDS011;9396;51.510;11.934;2023-10-31T05:50:11;3.23;;;1.20;;
18532;SDS011;9396;51.510;11.934;2023-10-31T05:52:38;2.00;;;1.10;;
18532;SDS011;9396;51.510;11.934;2023-10-31T05:55:05;1.30;;;1.20;;
18532;SDS011;9396;51.510;11.934;2023-10-31T05:57:32;4.20;;;1.37;;
18532;SDS011;9396;51.510;11.934;2023-10-31T05:59:59;1.77;;;1.20;;
18532;SDS011;9396;51.510;11.934;2023-10-31T06:02:26;1.37;;;1.17;;
18532;SDS011;9396;51.510;11.934;2023-10-31T06:04:54;1.67;;;1.27;;
18532;SDS011;9396;51.510;11.934;2023-10-31T06:07:20;1.50;;;1.40;;
18532;SDS011;9396;51.510;11.934;2023-10-31T06:09:47;1.37;;;1.10;;
18532;SDS011;9396;51.510;11.934;2023-10-31T06:12:13;1.53;;;1.33;;
18532;SDS011;9396;51.510;11.934;2023-10-31T06:14:41;1.30;;;1.20;;
18532;SDS011;9396;51.510;11.934;2023-10-31T06:17:08;1.20;;;1.10;;
18532;SDS011;9396;51.510;11.934;2023-10-31T06:19:35;3.83;;;1.07;;
18532;SDS011;9396;51.510;11.934;2023-10-31T06:22:04;1.37;;;1.00;;
18532;SDS011;9396;51.510;11.934;2023-10-31T06:24:31;2.47;;;1.00;;
18532;SDS011;9396;51.510;11.934;2023-10-31T06:26:57;2.43;;;1.10;;
18532;SDS011;9396;51.510;11.934;2023-10-31T06:29:24;2.53;;;1.10;;
18532;SDS011;9396;51.510;11.934;2023-10-31T06:31:50;1.37;;;1.07;;
18532;SDS011;9396;51.510;11.934;2023-10-31T06:34:17;1.07;;;0.90;;
18532;SDS011;9396;51.510;11.934;2023-10-31T06:36:44;2.10;;;1.07;;
18532;SDS011;9396;51.510;11.934;2023-10-31T06:39:12;2.80;;;0.93;;
18532;SDS011;9396;51.510;11.934;2023-10-31T06:41:38;1.30;;;1.10;;
18532;SDS011;9396;51.510;11.934;2023-10-31T06:44:05;3.70;;;1.10;;
18532;SDS011;9396;51.510;11.934;2023-10-31T06:46:32;1.73;;;1.03;;
18532;SDS011;9396;51.510;11.934;2023-10-31T06:48:58;2.53;;;1.20;;
18532;SDS011;9396;51.510;11.934;2023-10-31T06:51:25;5.80;;;1.63;;
18532;SDS011;9396;51.510;11.934;2023-10-31T06:53:52;1.00;;;0.90;;
18532;SDS011;9396;51.510;11.934;2023-10-31T06:56:19;0.93;;;0.87;;
18532;SDS011;9396;51.510;11.934;2023-10-31T06:58:46;2.80;;;1.10;;
18532;SDS011;9396;51.510;11.934;2023-10-31T07:01:13;2.30;;;1.10;;
18532;SDS011;9396;51.510;11.934;2023-10-31T07:03:43;3.13;;;1.13;;
18532;SDS011;9396;51.510;11.934;2023-10-31T07:06:10;1.63;;;0.90;;
18532;SDS011;9396;51.510;11.934;2023-10-31T07:08:36;2.30;;;0.80;;
18532;SDS011;9396;51.510;11.934;2023-10-31T07:11:03;0.77;;;0.77;;
18532;SDS011;9396;51.510;11.934;2023-10-31T07:13:31;1.33;;;0.90;;
18532;SDS011;9396;51.510;11.934;2023-10-31T07:15:58;1.30;;;0.90;;
18532;SDS011;9396;51.510;11.934;2023-10-31T07:18:24;1.07;;;0.97;;
18532;SDS011;9396;51.510;11.934;2023-10-31T07:20:51;1.30;;;1.00;;
18532;SDS011;9396;51.510;11.934;2023-10-31T07:23:17;5.70;;;2.90;;
18532;SDS011;9396;51.510;11.934;2023-10-31T07:25:44;3.77;;;2.43;;
18532;SDS011;9396;51.510;11.934;2023-10-31T07:28:11;3.10;;;0.90;;
18532;SDS011;9396;51.510;11.934;2023-10-31T07:30:39;4.00;;;1.20;;
18532;SDS011;9396;51.510;11.934;2023-10-31T07:33:06;2.20;;;1.27;;
18532;SDS011;9396;51.510;11.934;2023-10-31T07:35:32;1.37;;;1.00;;
18532;SDS011;9396;51.510;11.934;2023-10-31T07:37:59;5.23;;;1.00;;
18532;SDS011;9396;51.510;11.934;2023-10-31T07:40:26;3.20;;;1.30;;
18532;SDS011;9396;51.510;11.934;2023-10-31T07:42:52;2.57;;;0.90;;
18532;SDS011;9396;51.510;11.934;2023-10-31T07:45:19;1.53;;;0.80;;
18532;SDS011;9396;51.510;11.934;2023-10-31T07:47:47;2.00;;;0.80;;
18532;SDS011;9396;51.510;11.934;2023-10-31T07:50:14;1.00;;;0.80;;
18532;SDS011;9396;51.510;11.934;2023-10-31T07:52:40;1.53;;;0.90;;
18532;SDS011;9396;51.510;11.934;2023-10-31T07:55:08;1.40;;;0.80;;
18532;SDS011;9396;51.510;11.934;2023-10-31T07:57:36;0.93;;;0.80;;
18532;SDS011;9396;51.510;11.934;2023-10-31T08:00:03;2.63;;;0.70;;
18532;SDS011;9396;51.510;11.934;2023-10-31T08:02:31;0.90;;;0.80;;
18532;SDS011;9396;51.510;11.934;2023-10-31T08:04:59;1.93;;;0.90;;
18532;SDS011;9396;51.510;11.934;2023-10-31T08:07:25;1.07;;;0.90;;
18532;SDS011;9396;51.510;11.934;2023-10-31T08:09:55;4.63;;;1.00;;
18532;SDS011;9396;51.510;11.934;2023-10-31T08:12:21;1.00;;;0.90;;
18532;SDS011;9396;51.510;11.934;2023-10-31T08:14:48;1.20;;;0.80;;
18532;SDS011;9396;51.510;11.934;2023-10-31T08:17:15;2.30;;;0.83;;
18532;SDS011;9396;51.510;11.934;2023-10-31T08:19:42;1.80;;;0.87;;
18532;SDS011;9396;51.510;11.934;2023-10-31T08:22:10;1.13;;;0.70;;
18532;SDS011;9396;51.510;11.934;2023-10-31T08:24:36;7.30;;;0.80;;
18532;SDS011;9396;51.510;11.934;2023-10-31T08:27:04;3.03;;;0.80;;
18532;SDS011;9396;51.510;11.934;2023-10-31T08:29:31;2.30;;;0.80;;
18532;SDS011;9396;51.510;11.934;2023-10-31T08:31:57;3.67;;;0.90;;
18532;SDS011;9396;51.510;11.934;2023-10-31T08:34:24;0.50;;;0.50;;
18532;SDS011;9396;51.510;11.934;2023-10-31T08:36:50;0.77;;;0.70;;
18532;SDS011;9396;51.510;11.934;2023-10-31T08:39:19;3.87;;;0.80;;
18532;SDS011;9396;51.510;11.934;2023-10-31T08:41:49;1.00;;;0.67;;
18532;SDS011;9396;51.510;11.934;2023-10-31T08:44:17;4.90;;;0.70;;
18532;SDS011;9396;51.510;11.934;2023-10-31T08:46:43;1.53;;;0.73;;
18532;SDS011;9396;51.510;11.934;2023-10-31T08:49:10;1.93;;;0.70;;
18532;SDS011;9396;51.510;11.934;2023-10-31T08:51:37;4.57;;;0.70;;
18532;SDS011;9396;51.510;11.934;2023-10-31T08:54:03;1.77;;;0.70;;
18532;SDS011;9396;51.510;11.934;2023-10-31T08:56:32;4.73;;;0.60;;
18532;SDS011;9396;51.510;11.934;2023-10-31T08:58:58;1.10;;;0.90;;
18532;SDS011;9396;51.510;11.934;2023-10-31T09:01:25;1.63;;;0.70;;
18532;SDS011;9396;51.510;11.934;2023-10-31T09:03:54;6.37;;;0.73;;
18532;SDS011;9396;51.510;11.934;2023-10-31T09:06:20;2.90;;;0.70;;
18532;SDS011;9396;51.510;11.934;2023-10-31T09:08:47;2.17;;;0.77;;
18532;SDS011;9396;51.510;11.934;2023-10-31T09:11:14;1.87;;;0.70;;
18532;SDS011;9396;51.510;11.934;2023-10-31T09:13:42;1.70;;;0.60;;
18532;SDS011;9396;51.510;11.934;2023-10-31T09:16:08;2.50;;;1.23;;
18532;SDS011;9396;51.510;11.934;2023-10-31T09:18:35;3.13;;;1.27;;
18532;SDS011;9396;51.510;11.934;2023-10-31T09:21:02;2.30;;;1.53;;
18532;SDS011;9396;51.510;11.934;2023-10-31T09:23:29;1.23;;;0.90;;
18532;SDS011;9396;51.510;11.934;2023-10-31T09:25:55;2.67;;;1.27;;
18532;SDS011;9396;51.510;11.934;2023-10-31T09:28:23;2.13;;;0.70;;
18532;SDS011;9396;51.510;11.934;2023-10-31T09:30:51;3.97;;;0.70;;
18532;SDS011;9396;51.510;11.934;2023-10-31T09:33:18;6.30;;;1.00;;
18532;SDS011;9396;51.510;11.934;2023-10-31T09:35:45;1.73;;;0.60;;
18532;SDS011;9396;51.510;11.934;2023-10-31T09:38:11;3.90;;;0.83;;
18532;SDS011;9396;51.510;11.934;2023-10-31T09:40:38;2.97;;;1.00;;
18532;SDS011;9396;51.510;11.934;2023-10-31T09:43:05;2.53;;;0.53;;
18532;SDS011;9396;51.510;11.934;2023-10-31T09:45:32;0.77;;;0.57;;
18532;SDS011;9396;51.510;11.934;2023-10-31T09:48:00;3.17;;;0.70;;
18532;SDS011;9396;51.510;11.934;2023-10-31T09:50:27;0.77;;;0.37;;
18532;SDS011;9396;51.510;11.934;2023-10-31T09:52:56;0.80;;;0.63;;
18532;SDS011;9396;51.510;11.934;2023-10-31T09:55:24;0.57;;;0.40;;
18532;SDS011;9396;51.510;11.934;2023-10-31T09:57:51;0.30;;;0.30;;
18532;SDS011;9396;51.510;11.934;2023-10-31T10:00:18;0.83;;;0.20;;
18532;SDS011;9396;51.510;11.934;2023-10-31T10:02:44;2.97;;;0.50;;
18532;SDS011;9396;51.510;11.934;2023-10-31T10:05:12;0.60;;;0.53;;
18532;SDS011;9396;51.510;11.934;2023-10-31T10:07:42;0.43;;;0.40;;
18532;SDS011;9396;51.510;11.934;2023-10-31T10:10:10;2.60;;;0.50;;
18532;SDS011;9396;51.510;11.934;2023-10-31T10:12:37;1.07;;;0.40;;
18532;SDS011;9396;51.510;11.934;2023-10-31T10:15:04;4.07;;;0.63;;
18532;SDS011;9396;51.510;11.934;2023-10-31T10:17:31;0.30;;;0.30;;
18532;SDS011;9396;51.510;11.934;2023-10-31T10:20:05;2.50;;;0.50;;
18532;SDS011;9396;51.510;11.934;2023-10-31T10:22:37;0.43;;;0.40;;
18532;SDS011;9396;51.510;11.934;2023-10-31T10:25:06;0.50;;;0.37;;
18532;SDS011;9396;51.510;11.934;2023-10-31T10:27:33;0.77;;;0.43;;
18532;SDS011;9396;51.510;11.934;2023-10-31T10:30:00;1.43;;;0.50;;
18532;SDS011;9396;51.510;11.934;2023-10-31T10:32:27;0.57;;;0.30;;
18532;SDS011;9396;51.510;11.934;2023-10-31T10:34:54;0.30;;;0.30;;
18532;SDS011;9396;51.510;11.934;2023-10-31T10:37:21;0.67;;;0.57;;
18532;SDS011;9396;51.510;11.934;2023-10-31T10:39:49;0.60;;;0.47;;
18532;SDS011;9396;51.510;11.934;2023-10-31T10:42:21;1.43;;;0.37;;
18532;SDS011;9396;51.510;11.934;2023-10-31T10:44:57;1.63;;;0.70;;
18532;SDS011;9396;51.510;11.934;2023-10-31T10:47:28;2.70;;;0.70;;
18532;SDS011;9396;51.510;11.934;2023-10-31T10:49:55;0.70;;;0.40;;
18532;SDS011;9396;51.510;11.934;2023-10-31T10:52:27;0.80;;;0.40;;
18532;SDS011;9396;51.510;11.934;2023-10-31T10:55:01;1.80;;;0.63;;
18532;SDS011;9396;51.510;11.934;2023-10-31T10:57:35;6.67;;;0.67;;
18532;SDS011;9396;51.510;11.934;2023-10-31T11:00:05;0.67;;;0.50;;
18532;SDS011;9396;51.510;11.934;2023-10-31T11:02:36;1.00;;;0.60;;
18532;SDS011;9396;51.510;11.934;2023-10-31T11:05:04;1.33;;;0.47;;
18532;SDS011;9396;51.510;11.934;2023-10-31T11:07:32;1.23;;;0.60;;
18532;SDS011;9396;51.510;11.934;2023-10-31T11:10:02;2.00;;;0.40;;
18532;SDS011;9396;51.510;11.934;2023-10-31T11:12:30;1.23;;;0.40;;
18532;SDS011;9396;51.510;11.934;2023-10-31T11:14:57;1.03;;;0.67;;
18532;SDS011;9396;51.510;11.934;2023-10-31T11:17:26;1.13;;;0.53;;
18532;SDS011;9396;51.510;11.934;2023-10-31T11:19:55;1.93;;;0.80;;
18532;SDS011;9396;51.510;11.934;2023-10-31T11:22:22;1.83;;;0.70;;
18532;SDS011;9396;51.510;11.934;2023-10-31T11:24:49;2.67;;;0.80;;
18532;SDS011;9396;51.510;11.934;2023-10-31T11:27:18;1.77;;;0.57;;
18532;SDS011;9396;51.510;11.934;2023-10-31T11:29:44;2.23;;;0.83;;
18532;SDS011;9396;51.510;11.934;2023-10-31T11:32:11;0.57;;;0.53;;
18532;SDS011;9396;51.510;11.934;2023-10-31T11:34:38;2.07;;;0.80;;
18532;SDS011;9396;51.510;11.934;2023-10-31T11:37:22;0.77;;;0.70;;
18532;SDS011;9396;51.510;11.934;2023-10-31T11:42:43;3.33;;;0.60;;
18532;SDS011;9396;51.510;11.934;2023-10-31T11:45:13;0.90;;;0.70;;
18532;SDS011;9396;51.510;11.934;2023-10-31T11:47:49;2.70;;;0.70;;
18532;SDS011;9396;51.510;11.934;2023-10-31T11:50:16;1.00;;;0.70;;
18532;SDS011;9396;51.510;11.934;2023-10-31T11:52:43;3.57;;;0.80;;
18532;SDS011;9396;51.510;11.934;2023-10-31T11:55:10;3.53;;;0.80;;
18532;SDS011;9396;51.510;11.934;2023-10-31T11:57:38;2.03;;;0.63;;
18532;SDS011;9396;51.510;11.934;2023-10-31T12:00:06;1.20;;;0.70;;
18532;SDS011;9396;51.510;11.934;2023-10-31T12:02:56;1.37;;;0.70;;
18532;SDS011;9396;51.510;11.934;2023-10-31T12:05:23;2.13;;;0.80;;
18532;SDS011;9396;51.510;11.934;2023-10-31T12:07:50;2.50;;;0.97;;
18532;SDS011;9396;51.510;11.934;2023-10-31T12:10:21;2.33;;;1.00;;
18532;SDS011;9396;51.510;11.934;2023-10-31T12:12:48;1.77;;;0.80;;
18532;SDS011;9396;51.510;11.934;2023-10-31T12:15:16;2.77;;;0.83;;
18532;SDS011;9396;51.510;11.934;2023-10-31T12:17:43;0.80;;;0.80;;
18532;SDS011;9396;51.510;11.934;2023-10-31T12:20:10;1.10;;;0.70;;
18532;SDS011;9396;51.510;11.934;2023-10-31T12:22:37;1.43;;;0.80;;
18532;SDS011;9396;51.510;11.934;2023-10-31T12:25:05;0.97;;;0.87;;
18532;SDS011;9396;51.510;11.934;2023-10-31T12:27:43;1.90;;;0.80;;
18532;SDS011;9396;51.510;11.934;2023-10-31T12:30:11;1.07;;;0.70;;
18532;SDS011;9396;51.510;11.934;2023-10-31T12:32:40;2.03;;;0.70;;
18532;SDS011;9396;51.510;11.934;2023-10-31T12:35:08;1.93;;;0.90;;
18532;SDS011;9396;51.510;11.934;2023-10-31T12:37:41;0.70;;;0.70;;
18532;SDS011;9396;51.510;11.934;2023-10-31T12:40:10;1.63;;;0.50;;
18532;SDS011;9396;51.510;11.934;2023-10-31T12:42:36;1.63;;;0.60;;
18532;SDS011;9396;51.510;11.934;2023-10-31T12:45:04;1.10;;;0.73;;
18532;SDS011;9396;51.510;11.934;2023-10-31T12:47:31;1.33;;;0.73;;
18532;SDS011;9396;51.510;11.934;2023-10-31T12:50:07;4.33;;;1.00;;
18532;SDS011;9396;51.510;11.934;2023-10-31T12:52:48;3.03;;;0.80;;
18532;SDS011;9396;51.510;11.934;2023-10-31T12:55:16;0.93;;;0.70;;
18532;SDS011;9396;51.510;11.934;2023-10-31T12:57:44;1.87;;;0.90;;
18532;SDS011;9396;51.510;11.934;2023-10-31T13:00:12;4.40;;;0.80;;
18532;SDS011;9396;51.510;11.934;2023-10-31T13:02:40;2.30;;;0.80;;
18532;SDS011;9396;51.510;11.934;2023-10-31T13:05:12;0.80;;;0.70;;
18532;SDS011;9396;51.510;11.934;2023-10-31T13:07:41;0.80;;;0.70;;
18532;SDS011;9396;51.510;11.934;2023-10-31T13:10:15;1.80;;;0.87;;
18532;SDS011;9396;51.510;11.934;2023-10-31T13:12:43;1.23;;;0.70;;
18532;SDS011;9396;51.510;11.934;2023-10-31T13:15:10;0.80;;;0.80;;
18532;SDS011;9396;51.510;11.934;2023-10-31T13:17:37;1.10;;;0.70;;
18532;SDS011;9396;51.510;11.934;2023-10-31T13:20:04;3.07;;;1.00;;
18532;SDS011;9396;51.510;11.934;2023-10-31T13:22:33;2.27;;;1.10;;
18532;SDS011;9396;51.510;11.934;2023-10-31T13:25:00;3.37;;;0.90;;
18532;SDS011;9396;51.510;11.934;2023-10-31T13:27:29;1.37;;;0.90;;
18532;SDS011;9396;51.510;11.934;2023-10-31T13:29:56;1.40;;;1.10;;
18532;SDS011;9396;51.510;11.934;2023-10-31T13:32:23;2.23;;;0.97;;
18532;SDS011;9396;51.510;11.934;2023-10-31T13:34:49;2.93;;;0.90;;
18532;SDS011;9396;51.510;11.934;2023-10-31T13:37:16;0.77;;;0.77;;
18532;SDS011;9396;51.510;11.934;2023-10-31T13:39:44;1.20;;;1.07;;
18532;SDS011;9396;51.510;11.934;2023-10-31T13:42:11;1.13;;;1.03;;
18532;SDS011;9396;51.510;11.934;2023-10-31T13:44:39;3.40;;;1.30;;
18532;SDS011;9396;51.510;11.934;2023-10-31T13:47:06;1.70;;;1.00;;
18532;SDS011;9396;51.510;11.934;2023-10-31T13:49:32;2.90;;;1.20;;
18532;SDS011;9396;51.510;11.934;2023-10-31T13:51:59;1.77;;;1.17;;
18532;SDS011;9396;51.510;11.934;2023-10-31T13:54:26;3.57;;;1.50;;
18532;SDS011;9396;51.510;11.934;2023-10-31T13:56:54;1.43;;;1.27;;
18532;SDS011;9396;51.510;11.934;2023-10-31T13:59:21;1.77;;;1.30;;
18532;SDS011;9396;51.510;11.934;2023-10-31T14:01:47;1.27;;;1.17;;
18532;SDS011;9396;51.510;11.934;2023-10-31T14:04:14;1.37;;;1.20;;
18532;SDS011;9396;51.510;11.934;2023-10-31T14:06:42;1.50;;;1.20;;
18532;SDS011;9396;51.510;11.934;2023-10-31T14:09:09;1.40;;;1.10;;
18532;SDS011;9396;51.510;11.934;2023-10-31T14:11:37;2.00;;;1.30;;
18532;SDS011;9396;51.510;11.934;2023-10-31T14:14:05;1.33;;;1.20;;
18532;SDS011;9396;51.510;11.934;2023-10-31T14:16:34;1.60;;;1.10;;
18532;SDS011;9396;51.510;11.934;2023-10-31T14:19:01;1.30;;;1.10;;
18532;SDS011;9396;51.510;11.934;2023-10-31T14:21:28;1.10;;;1.00;;
18532;SDS011;9396;51.510;11.934;2023-10-31T14:23:55;6.00;;;1.73;;
18532;SDS011;9396;51.510;11.934;2023-10-31T14:26:21;1.40;;;1.03;;
18532;SDS011;9396;51.510;11.934;2023-10-31T14:28:49;1.83;;;1.00;;
18532;SDS011;9396;51.510;11.934;2023-10-31T14:31:18;1.47;;;1.30;;
18532;SDS011;9396;51.510;11.934;2023-10-31T14:33:45;1.63;;;1.00;;
18532;SDS011;9396;51.510;11.934;2023-10-31T14:36:12;2.17;;;1.20;;
18532;SDS011;9396;51.510;11.934;2023-10-31T14:38:39;1.57;;;1.00;;
18532;SDS011;9396;51.510;11.934;2023-10-31T14:41:06;1.53;;;0.80;;
18532;SDS011;9396;51.510;11.934;2023-10-31T14:43:33;1.70;;;1.13;;
18532;SDS011;9396;51.510;11.934;2023-10-31T14:46:00;2.03;;;1.20;;
18532;SDS011;9396;51.510;11.934;2023-10-31T14:48:29;1.50;;;1.10;;